sensor_id;sensor_type;location;lat;lon;timestamp;P1;durP1;ratioP1;P2;durP2;ratioP2
20271;SDS011;10295;49.812;9.866;2022-10-30T00:02:24;53.13;;;18.33;;
20271;SDS011;10295;49.812;9.866;2022-10-30T00:04:52;63.63;;;19.00;;
20271;SDS011;10295;49.812;9.866;2022-10-30T00:07:19;67.80;;;21.57;;
20271;SDS011;10295;49.812;9.866;2022-10-30T00:09:46;55.73;;;22.13;;
20271;SDS011;10295;49.812;9.866;2022-10-30T00:12:13;65.23;;;24.40;;
20271;SDS011;10295;49.812;9.866;2022-10-30T00:14:40;55.30;;;22.47;;
20271;SDS011;10295;49.812;9.866;2022-10-30T00:17:07;84.17;;;27.27;;
20271;SDS011;10295;49.812;9.866;2022-10-30T00:19:34;66.87;;;20.03;;
20271;SDS011;10295;49.812;9.866;2022-10-30T00:22:01;72.13;;;20.10;;
20271;SDS011;10295;49.812;9.866;2022-10-30T00:24:28;35.47;;;15.80;;
20271;SDS011;10295;49.812;9.866;2022-10-30T00:26:55;55.87;;;16.67;;
20271;SDS011;10295;49.812;9.866;2022-10-30T00:29:22;58.60;;;18.70;;
20271;SDS011;10295;49.812;9.866;2022-10-30T00:31:51;43.17;;;16.93;;
20271;SDS011;10295;49.812;9.866;2022-10-30T00:34:19;52.83;;;19.47;;
20271;SDS011;10295;49.812;9.866;2022-10-30T00:36:46;41.80;;;16.57;;
20271;SDS011;10295;49.812;9.866;2022-10-30T00:39:13;49.20;;;18.27;;
20271;SDS011;10295;49.812;9.866;2022-10-30T00:41:40;47.57;;;18.77;;
20271;SDS011;10295;49.812;9.866;2022-10-30T00:46:53;61.60;;;18.93;;
20271;SDS011;10295;49.812;9.866;2022-10-30T00:49:20;81.03;;;19.97;;
20271;SDS011;10295;49.812;9.866;2022-10-30T00:51:49;50.90;;;18.97;;
20271;SDS011;10295;49.812;9.866;2022-10-30T00:54:18;54.50;;;19.20;;
20271;SDS011;10295;49.812;9.866;2022-10-30T00:56:46;75.30;;;20.43;;
20271;SDS011;10295;49.812;9.866;2022-10-30T00:59:21;59.83;;;19.23;;
20271;SDS011;10295;49.812;9.866;2022-10-30T01:01:49;67.93;;;20.87;;
20271;SDS011;10295;49.812;9.866;2022-10-30T01:04:16;63.90;;;19.50;;
20271;SDS011;10295;49.812;9.866;2022-10-30T01:06:44;63.20;;;20.27;;
20271;SDS011;10295;49.812;9.866;2022-10-30T01:09:13;47.23;;;19.33;;
20271;SDS011;10295;49.812;9.866;2022-10-30T01:11:41;59.23;;;20.03;;
20271;SDS011;10295;49.812;9.866;2022-10-30T01:14:08;54.30;;;20.00;;
20271;SDS011;10295;49.812;9.866;2022-10-30T01:25:05;51.40;;;19.47;;
20271;SDS011;10295;49.812;9.866;2022-10-30T01:27:15;50.43;;;16.10;;
20271;SDS011;10295;49.812;9.866;2022-10-30T01:35:05;117.27;;;19.70;;
20271;SDS011;10295;49.812;9.866;2022-10-30T01:37:38;121.67;;;19.90;;
20271;SDS011;10295;49.812;9.866;2022-10-30T01:40:11;128.80;;;20.43;;
20271;SDS011;10295;49.812;9.866;2022-10-30T01:50:32;92.57;;;17.27;;
20271;SDS011;10295;49.812;9.866;2022-10-30T01:53:12;94.77;;;16.77;;
20271;SDS011;10295;49.812;9.866;2022-10-30T01:55:45;98.57;;;15.53;;
20271;SDS011;10295;49.812;9.866;2022-10-30T02:01:13;62.87;;;14.30;;
20271;SDS011;10295;49.812;9.866;2022-10-30T02:03:41;74.73;;;15.07;;
20271;SDS011;10295;49.812;9.866;2022-10-30T02:06:09;40.17;;;14.33;;
20271;SDS011;10295;49.812;9.866;2022-10-30T02:08:36;45.00;;;14.93;;
20271;SDS011;10295;49.812;9.866;2022-10-30T02:11:03;51.13;;;14.93;;
20271;SDS011;10295;49.812;9.866;2022-10-30T02:13:30;43.63;;;14.23;;
20271;SDS011;10295;49.812;9.866;2022-10-30T02:15:57;53.07;;;14.73;;
20271;SDS011;10295;49.812;9.866;2022-10-30T02:18:25;56.80;;;14.57;;
20271;SDS011;10295;49.812;9.866;2022-10-30T02:20:52;51.63;;;15.27;;
20271;SDS011;10295;49.812;9.866;2022-10-30T02:23:19;49.63;;;13.87;;
20271;SDS011;10295;49.812;9.866;2022-10-30T02:25:47;53.43;;;14.43;;
20271;SDS011;10295;49.812;9.866;2022-10-30T02:28:14;41.13;;;14.70;;
20271;SDS011;10295;49.812;9.866;2022-10-30T02:30:41;41.03;;;14.07;;
20271;SDS011;10295;49.812;9.866;2022-10-30T02:33:09;37.50;;;14.57;;
20271;SDS011;10295;49.812;9.866;2022-10-30T02:35:36;41.00;;;13.93;;
20271;SDS011;10295;49.812;9.866;2022-10-30T02:38:03;60.53;;;15.67;;
20271;SDS011;10295;49.812;9.866;2022-10-30T02:40:30;32.90;;;13.73;;
20271;SDS011;10295;49.812;9.866;2022-10-30T02:42:58;88.60;;;17.87;;
20271;SDS011;10295;49.812;9.866;2022-10-30T02:45:25;49.97;;;14.67;;
20271;SDS011;10295;49.812;9.866;2022-10-30T02:47:52;93.83;;;16.80;;
20271;SDS011;10295;49.812;9.866;2022-10-30T02:50:19;39.67;;;14.03;;
20271;SDS011;10295;49.812;9.866;2022-10-30T02:52:47;35.53;;;14.27;;
20271;SDS011;10295;49.812;9.866;2022-10-30T02:55:14;42.53;;;15.07;;
20271;SDS011;10295;49.812;9.866;2022-10-30T02:57:41;55.00;;;14.63;;
20271;SDS011;10295;49.812;9.866;2022-10-30T03:00:08;56.50;;;16.10;;
20271;SDS011;10295;49.812;9.866;2022-10-30T03:02:35;44.57;;;15.13;;
20271;SDS011;10295;49.812;9.866;2022-10-30T03:05:02;47.77;;;14.43;;
20271;SDS011;10295;49.812;9.866;2022-10-30T03:07:29;70.33;;;16.23;;
20271;SDS011;10295;49.812;9.866;2022-10-30T03:09:56;88.23;;;16.67;;
20271;SDS011;10295;49.812;9.866;2022-10-30T03:12:24;90.63;;;16.67;;
20271;SDS011;10295;49.812;9.866;2022-10-30T03:14:51;53.80;;;14.57;;
20271;SDS011;10295;49.812;9.866;2022-10-30T03:17:18;50.50;;;13.97;;
20271;SDS011;10295;49.812;9.866;2022-10-30T03:19:45;55.50;;;13.67;;
20271;SDS011;10295;49.812;9.866;2022-10-30T03:22:12;53.63;;;13.13;;
20271;SDS011;10295;49.812;9.866;2022-10-30T03:24:39;66.50;;;13.23;;
20271;SDS011;10295;49.812;9.866;2022-10-30T03:27:06;58.47;;;13.50;;
20271;SDS011;10295;49.812;9.866;2022-10-30T03:29:33;54.83;;;13.10;;
20271;SDS011;10295;49.812;9.866;2022-10-30T03:32:00;67.77;;;13.23;;
20271;SDS011;10295;49.812;9.866;2022-10-30T03:34:27;56.63;;;14.00;;
20271;SDS011;10295;49.812;9.866;2022-10-30T03:36:54;44.30;;;12.40;;
20271;SDS011;10295;49.812;9.866;2022-10-30T03:39:21;65.27;;;13.43;;
20271;SDS011;10295;49.812;9.866;2022-10-30T03:41:49;66.87;;;13.30;;
20271;SDS011;10295;49.812;9.866;2022-10-30T03:44:16;144.57;;;15.23;;
20271;SDS011;10295;49.812;9.866;2022-10-30T03:46:43;110.60;;;15.77;;
20271;SDS011;10295;49.812;9.866;2022-10-30T03:49:10;126.27;;;15.90;;
20271;SDS011;10295;49.812;9.866;2022-10-30T03:51:37;98.17;;;16.53;;
20271;SDS011;10295;49.812;9.866;2022-10-30T03:54:04;134.20;;;16.47;;
20271;SDS011;10295;49.812;9.866;2022-10-30T03:56:31;121.27;;;16.30;;
20271;SDS011;10295;49.812;9.866;2022-10-30T03:58:58;133.93;;;16.30;;
20271;SDS011;10295;49.812;9.866;2022-10-30T04:01:25;138.63;;;16.63;;
20271;SDS011;10295;49.812;9.866;2022-10-30T04:03:53;115.77;;;15.33;;
20271;SDS011;10295;49.812;9.866;2022-10-30T04:06:20;121.20;;;15.27;;
20271;SDS011;10295;49.812;9.866;2022-10-30T04:08:47;119.50;;;15.07;;
20271;SDS011;10295;49.812;9.866;2022-10-30T04:11:14;98.37;;;13.60;;
20271;SDS011;10295;49.812;9.866;2022-10-30T04:13:41;134.57;;;14.83;;
20271;SDS011;10295;49.812;9.866;2022-10-30T04:16:08;101.67;;;14.70;;
20271;SDS011;10295;49.812;9.866;2022-10-30T04:18:35;157.77;;;17.40;;
20271;SDS011;10295;49.812;9.866;2022-10-30T04:21:02;146.57;;;15.17;;
20271;SDS011;10295;49.812;9.866;2022-10-30T04:23:30;140.57;;;15.40;;
20271;SDS011;10295;49.812;9.866;2022-10-30T04:25:58;126.03;;;14.63;;
20271;SDS011;10295;49.812;9.866;2022-10-30T04:28:26;78.07;;;13.30;;
20271;SDS011;10295;49.812;9.866;2022-10-30T04:30:53;89.80;;;11.83;;
20271;SDS011;10295;49.812;9.866;2022-10-30T04:33:20;53.53;;;10.90;;
20271;SDS011;10295;49.812;9.866;2022-10-30T04:35:47;95.63;;;12.47;;
20271;SDS011;10295;49.812;9.866;2022-10-30T04:38:14;100.93;;;12.77;;
20271;SDS011;10295;49.812;9.866;2022-10-30T04:40:44;120.40;;;13.73;;
20271;SDS011;10295;49.812;9.866;2022-10-30T04:43:11;101.27;;;13.57;;
20271;SDS011;10295;49.812;9.866;2022-10-30T04:45:39;76.50;;;11.60;;
20271;SDS011;10295;49.812;9.866;2022-10-30T04:48:08;106.53;;;13.07;;
20271;SDS011;10295;49.812;9.866;2022-10-30T04:50:36;69.30;;;12.80;;
20271;SDS011;10295;49.812;9.866;2022-10-30T04:53:14;82.97;;;13.17;;
20271;SDS011;10295;49.812;9.866;2022-10-30T04:55:41;135.63;;;15.23;;
20271;SDS011;10295;49.812;9.866;2022-10-30T04:58:09;91.73;;;12.53;;
20271;SDS011;10295;49.812;9.866;2022-10-30T05:00:36;103.90;;;13.17;;
20271;SDS011;10295;49.812;9.866;2022-10-30T05:03:03;96.23;;;12.20;;
20271;SDS011;10295;49.812;9.866;2022-10-30T05:05:31;61.17;;;10.03;;
20271;SDS011;10295;49.812;9.866;2022-10-30T05:07:58;92.93;;;10.73;;
20271;SDS011;10295;49.812;9.866;2022-10-30T05:10:26;96.33;;;11.70;;
20271;SDS011;10295;49.812;9.866;2022-10-30T05:12:53;97.33;;;12.47;;
20271;SDS011;10295;49.812;9.866;2022-10-30T05:15:20;69.90;;;11.20;;
20271;SDS011;10295;49.812;9.866;2022-10-30T05:17:51;69.77;;;11.60;;
20271;SDS011;10295;49.812;9.866;2022-10-30T05:20:19;95.93;;;12.50;;
20271;SDS011;10295;49.812;9.866;2022-10-30T05:22:52;55.27;;;12.30;;
20271;SDS011;10295;49.812;9.866;2022-10-30T05:25:19;142.60;;;14.23;;
20271;SDS011;10295;49.812;9.866;2022-10-30T05:27:46;110.10;;;13.67;;
20271;SDS011;10295;49.812;9.866;2022-10-30T05:30:13;136.30;;;14.03;;
20271;SDS011;10295;49.812;9.866;2022-10-30T05:32:40;202.50;;;16.10;;
20271;SDS011;10295;49.812;9.866;2022-10-30T05:35:07;233.57;;;16.83;;
20271;SDS011;10295;49.812;9.866;2022-10-30T05:37:35;268.80;;;18.60;;
20271;SDS011;10295;49.812;9.866;2022-10-30T05:40:02;129.43;;;13.20;;
20271;SDS011;10295;49.812;9.866;2022-10-30T05:42:29;188.60;;;15.20;;
20271;SDS011;10295;49.812;9.866;2022-10-30T05:44:56;259.23;;;17.70;;
20271;SDS011;10295;49.812;9.866;2022-10-30T05:47:27;197.17;;;16.30;;
20271;SDS011;10295;49.812;9.866;2022-10-30T05:49:54;162.17;;;15.37;;
20271;SDS011;10295;49.812;9.866;2022-10-30T05:52:21;189.93;;;17.30;;
20271;SDS011;10295;49.812;9.866;2022-10-30T05:54:48;332.40;;;20.87;;
20271;SDS011;10295;49.812;9.866;2022-10-30T05:57:15;288.57;;;19.90;;
20271;SDS011;10295;49.812;9.866;2022-10-30T05:59:42;272.87;;;20.43;;
20271;SDS011;10295;49.812;9.866;2022-10-30T06:02:09;233.47;;;18.57;;
20271;SDS011;10295;49.812;9.866;2022-10-30T06:04:36;215.00;;;17.80;;
20271;SDS011;10295;49.812;9.866;2022-10-30T06:07:03;253.30;;;20.90;;
20271;SDS011;10295;49.812;9.866;2022-10-30T06:09:30;223.00;;;17.23;;
20271;SDS011;10295;49.812;9.866;2022-10-30T06:11:57;297.87;;;20.43;;
20271;SDS011;10295;49.812;9.866;2022-10-30T06:14:24;381.83;;;24.37;;
20271;SDS011;10295;49.812;9.866;2022-10-30T06:16:52;271.37;;;19.80;;
20271;SDS011;10295;49.812;9.866;2022-10-30T06:19:19;433.73;;;26.60;;
20271;SDS011;10295;49.812;9.866;2022-10-30T06:21:46;307.73;;;20.00;;
20271;SDS011;10295;49.812;9.866;2022-10-30T06:24:13;318.80;;;21.90;;
20271;SDS011;10295;49.812;9.866;2022-10-30T06:26:40;297.87;;;20.70;;
20271;SDS011;10295;49.812;9.866;2022-10-30T06:29:07;384.57;;;22.33;;
20271;SDS011;10295;49.812;9.866;2022-10-30T06:31:34;346.93;;;20.63;;
20271;SDS011;10295;49.812;9.866;2022-10-30T06:34:01;355.93;;;19.73;;
20271;SDS011;10295;49.812;9.866;2022-10-30T06:36:28;274.63;;;17.47;;
20271;SDS011;10295;49.812;9.866;2022-10-30T06:38:55;135.00;;;13.33;;
20271;SDS011;10295;49.812;9.866;2022-10-30T06:41:22;192.77;;;15.63;;
20271;SDS011;10295;49.812;9.866;2022-10-30T06:43:55;259.60;;;16.60;;
20271;SDS011;10295;49.812;9.866;2022-10-30T06:46:22;123.00;;;12.70;;
20271;SDS011;10295;49.812;9.866;2022-10-30T06:48:55;152.97;;;13.20;;
20271;SDS011;10295;49.812;9.866;2022-10-30T06:51:22;129.10;;;12.53;;
20271;SDS011;10295;49.812;9.866;2022-10-30T06:53:50;160.60;;;13.30;;
20271;SDS011;10295;49.812;9.866;2022-10-30T06:56:17;209.13;;;16.13;;
20271;SDS011;10295;49.812;9.866;2022-10-30T06:58:44;256.77;;;17.80;;
20271;SDS011;10295;49.812;9.866;2022-10-30T07:01:11;276.90;;;18.00;;
20271;SDS011;10295;49.812;9.866;2022-10-30T07:03:38;383.07;;;22.63;;
20271;SDS011;10295;49.812;9.866;2022-10-30T07:06:05;408.97;;;23.13;;
20271;SDS011;10295;49.812;9.866;2022-10-30T07:08:33;403.20;;;21.70;;
20271;SDS011;10295;49.812;9.866;2022-10-30T07:11:00;466.63;;;23.63;;
20271;SDS011;10295;49.812;9.866;2022-10-30T07:13:27;394.33;;;20.90;;
20271;SDS011;10295;49.812;9.866;2022-10-30T07:15:54;442.27;;;21.87;;
20271;SDS011;10295;49.812;9.866;2022-10-30T07:18:21;426.30;;;21.87;;
20271;SDS011;10295;49.812;9.866;2022-10-30T07:20:52;260.37;;;16.87;;
20271;SDS011;10295;49.812;9.866;2022-10-30T07:23:20;148.13;;;13.97;;
20271;SDS011;10295;49.812;9.866;2022-10-30T07:25:47;340.97;;;20.20;;
20271;SDS011;10295;49.812;9.866;2022-10-30T07:28:14;594.33;;;28.33;;
20271;SDS011;10295;49.812;9.866;2022-10-30T07:30:41;538.87;;;26.93;;
20271;SDS011;10295;49.812;9.866;2022-10-30T07:33:08;454.67;;;24.30;;
20271;SDS011;10295;49.812;9.866;2022-10-30T07:35:35;67.80;;;11.87;;
20271;SDS011;10295;49.812;9.866;2022-10-30T07:40:30;94.23;;;10.33;;
20271;SDS011;10295;49.812;9.866;2022-10-30T07:42:58;136.17;;;11.40;;
20271;SDS011;10295;49.812;9.866;2022-10-30T07:45:26;264.07;;;16.47;;
20271;SDS011;10295;49.812;9.866;2022-10-30T07:47:54;115.93;;;11.60;;
20271;SDS011;10295;49.812;9.866;2022-10-30T07:50:22;157.47;;;13.57;;
20271;SDS011;10295;49.812;9.866;2022-10-30T07:52:49;158.13;;;11.70;;
20271;SDS011;10295;49.812;9.866;2022-10-30T07:55:16;153.47;;;12.03;;
20271;SDS011;10295;49.812;9.866;2022-10-30T07:57:43;178.40;;;13.70;;
20271;SDS011;10295;49.812;9.866;2022-10-30T08:00:11;110.27;;;10.93;;
20271;SDS011;10295;49.812;9.866;2022-10-30T08:02:39;161.60;;;11.57;;
20271;SDS011;10295;49.812;9.866;2022-10-30T08:05:07;135.57;;;10.57;;
20271;SDS011;10295;49.812;9.866;2022-10-30T08:07:35;161.00;;;12.33;;
20271;SDS011;10295;49.812;9.866;2022-10-30T08:10:03;168.13;;;10.80;;
20271;SDS011;10295;49.812;9.866;2022-10-30T08:12:31;72.23;;;8.97;;
20271;SDS011;10295;49.812;9.866;2022-10-30T08:14:58;126.90;;;10.40;;
20271;SDS011;10295;49.812;9.866;2022-10-30T08:17:25;78.93;;;9.37;;
20271;SDS011;10295;49.812;9.866;2022-10-30T08:19:53;57.57;;;8.50;;
20271;SDS011;10295;49.812;9.866;2022-10-30T08:22:20;107.97;;;9.97;;
20271;SDS011;10295;49.812;9.866;2022-10-30T08:24:47;72.63;;;7.80;;
20271;SDS011;10295;49.812;9.866;2022-10-30T08:27:14;70.03;;;8.53;;
20271;SDS011;10295;49.812;9.866;2022-10-30T08:29:41;70.00;;;7.90;;
20271;SDS011;10295;49.812;9.866;2022-10-30T08:32:09;44.53;;;7.13;;
20271;SDS011;10295;49.812;9.866;2022-10-30T08:34:36;41.67;;;9.43;;
20271;SDS011;10295;49.812;9.866;2022-10-30T08:37:03;62.00;;;9.30;;
20271;SDS011;10295;49.812;9.866;2022-10-30T08:39:30;53.53;;;8.13;;
20271;SDS011;10295;49.812;9.866;2022-10-30T08:41:58;131.37;;;9.90;;
20271;SDS011;10295;49.812;9.866;2022-10-30T08:44:25;173.37;;;11.10;;
20271;SDS011;10295;49.812;9.866;2022-10-30T08:46:52;85.47;;;8.57;;
20271;SDS011;10295;49.812;9.866;2022-10-30T08:49:19;43.20;;;8.63;;
20271;SDS011;10295;49.812;9.866;2022-10-30T08:51:46;30.90;;;7.40;;
20271;SDS011;10295;49.812;9.866;2022-10-30T08:54:13;57.50;;;7.77;;
20271;SDS011;10295;49.812;9.866;2022-10-30T08:56:40;30.23;;;7.10;;
20271;SDS011;10295;49.812;9.866;2022-10-30T08:59:07;85.43;;;8.97;;
20271;SDS011;10295;49.812;9.866;2022-10-30T09:01:34;93.10;;;9.20;;
20271;SDS011;10295;49.812;9.866;2022-10-30T09:04:02;56.47;;;8.07;;
20271;SDS011;10295;49.812;9.866;2022-10-30T09:06:29;60.23;;;8.77;;
20271;SDS011;10295;49.812;9.866;2022-10-30T09:08:57;42.67;;;7.47;;
20271;SDS011;10295;49.812;9.866;2022-10-30T09:11:24;52.17;;;7.43;;
20271;SDS011;10295;49.812;9.866;2022-10-30T09:13:51;57.23;;;7.43;;
20271;SDS011;10295;49.812;9.866;2022-10-30T09:16:18;44.00;;;6.97;;
20271;SDS011;10295;49.812;9.866;2022-10-30T09:18:45;101.23;;;8.53;;
20271;SDS011;10295;49.812;9.866;2022-10-30T09:21:12;30.17;;;7.40;;
20271;SDS011;10295;49.812;9.866;2022-10-30T09:23:41;219.40;;;12.47;;
20271;SDS011;10295;49.812;9.866;2022-10-30T09:26:09;28.50;;;6.20;;
20271;SDS011;10295;49.812;9.866;2022-10-30T09:28:36;46.53;;;7.83;;
20271;SDS011;10295;49.812;9.866;2022-10-30T09:31:03;50.40;;;7.27;;
20271;SDS011;10295;49.812;9.866;2022-10-30T09:33:30;35.43;;;7.43;;
20271;SDS011;10295;49.812;9.866;2022-10-30T09:35:57;40.50;;;6.80;;
20271;SDS011;10295;49.812;9.866;2022-10-30T09:38:24;72.30;;;7.63;;
20271;SDS011;10295;49.812;9.866;2022-10-30T09:58:49;22.40;;;6.57;;
20271;SDS011;10295;49.812;9.866;2022-10-30T10:01:19;57.70;;;7.43;;
20271;SDS011;10295;49.812;9.866;2022-10-30T10:06:19;29.93;;;7.07;;
20271;SDS011;10295;49.812;9.866;2022-10-30T10:08:51;54.80;;;7.20;;
20271;SDS011;10295;49.812;9.866;2022-10-30T10:11:20;22.97;;;6.37;;
20271;SDS011;10295;49.812;9.866;2022-10-30T10:16:29;19.17;;;7.73;;
20271;SDS011;10295;49.812;9.866;2022-10-30T10:18:59;22.93;;;6.50;;
20271;SDS011;10295;49.812;9.866;2022-10-30T10:21:28;50.80;;;7.20;;
20271;SDS011;10295;49.812;9.866;2022-10-30T10:24:01;39.70;;;6.70;;
20271;SDS011;10295;49.812;9.866;2022-10-30T10:26:30;88.23;;;7.93;;
20271;SDS011;10295;49.812;9.866;2022-10-30T10:37:01;53.87;;;6.90;;
20271;SDS011;10295;49.812;9.866;2022-10-30T10:47:34;11.25;;;6.28;;
20271;SDS011;10295;49.812;9.866;2022-10-30T10:52:37;17.13;;;7.93;;
20271;SDS011;10295;49.812;9.866;2022-10-30T10:55:26;18.15;;;9.05;;
20271;SDS011;10295;49.812;9.866;2022-10-30T10:57:52;18.50;;;8.98;;
20271;SDS011;10295;49.812;9.866;2022-10-30T11:00:21;12.20;;;6.50;;
20271;SDS011;10295;49.812;9.866;2022-10-30T11:05:24;11.10;;;5.80;;
20271;SDS011;10295;49.812;9.866;2022-10-30T11:07:52;8.82;;;4.97;;
20271;SDS011;10295;49.812;9.866;2022-10-30T11:10:19;9.50;;;5.22;;
20271;SDS011;10295;49.812;9.866;2022-10-30T11:12:48;9.75;;;5.40;;
20271;SDS011;10295;49.812;9.866;2022-10-30T11:15:20;8.55;;;4.88;;
20271;SDS011;10295;49.812;9.866;2022-10-30T11:17:53;10.32;;;5.47;;
20271;SDS011;10295;49.812;9.866;2022-10-30T11:20:27;9.38;;;5.20;;
20271;SDS011;10295;49.812;9.866;2022-10-30T11:22:54;9.82;;;4.75;;
20271;SDS011;10295;49.812;9.866;2022-10-30T11:25:24;8.93;;;5.30;;
20271;SDS011;10295;49.812;9.866;2022-10-30T11:27:57;8.50;;;4.93;;
20271;SDS011;10295;49.812;9.866;2022-10-30T11:30:26;10.27;;;5.22;;
20271;SDS011;10295;49.812;9.866;2022-10-30T11:32:54;8.52;;;4.70;;
20271;SDS011;10295;49.812;9.866;2022-10-30T11:35:22;8.48;;;4.70;;
20271;SDS011;10295;49.812;9.866;2022-10-30T11:37:51;11.35;;;5.22;;
20271;SDS011;10295;49.812;9.866;2022-10-30T11:40:19;9.32;;;4.88;;
20271;SDS011;10295;49.812;9.866;2022-10-30T11:47:53;10.90;;;5.10;;
20271;SDS011;10295;49.812;9.866;2022-10-30T11:50:28;12.68;;;5.20;;
20271;SDS011;10295;49.812;9.866;2022-10-30T11:52:57;10.68;;;5.45;;
20271;SDS011;10295;49.812;9.866;2022-10-30T11:55:36;12.18;;;5.65;;
20271;SDS011;10295;49.812;9.866;2022-10-30T11:58:05;13.00;;;5.93;;
20271;SDS011;10295;49.812;9.866;2022-10-30T12:00:35;9.85;;;5.40;;
20271;SDS011;10295;49.812;9.866;2022-10-30T12:03:02;11.73;;;5.47;;
20271;SDS011;10295;49.812;9.866;2022-10-30T12:05:31;10.93;;;5.80;;
20271;SDS011;10295;49.812;9.866;2022-10-30T12:10:43;12.75;;;5.72;;
20271;SDS011;10295;49.812;9.866;2022-10-30T12:13:15;11.05;;;5.85;;
20271;SDS011;10295;49.812;9.866;2022-10-30T12:15:43;13.25;;;6.03;;
20271;SDS011;10295;49.812;9.866;2022-10-30T12:18:21;11.32;;;6.20;;
20271;SDS011;10295;49.812;9.866;2022-10-30T12:20:54;12.48;;;6.28;;
20271;SDS011;10295;49.812;9.866;2022-10-30T12:23:22;14.98;;;7.75;;
20271;SDS011;10295;49.812;9.866;2022-10-30T12:25:51;14.20;;;7.22;;
20271;SDS011;10295;49.812;9.866;2022-10-30T12:28:20;20.83;;;13.73;;
20271;SDS011;10295;49.812;9.866;2022-10-30T12:30:49;19.73;;;7.28;;
20271;SDS011;10295;49.812;9.866;2022-10-30T12:36:14;16.20;;;6.22;;
20271;SDS011;10295;49.812;9.866;2022-10-30T12:38:44;14.02;;;6.55;;
20271;SDS011;10295;49.812;9.866;2022-10-30T12:43:58;16.13;;;6.35;;
20271;SDS011;10295;49.812;9.866;2022-10-30T12:46:39;16.58;;;6.50;;
20271;SDS011;10295;49.812;9.866;2022-10-30T12:51:40;14.00;;;6.07;;
20271;SDS011;10295;49.812;9.866;2022-10-30T12:56:42;18.17;;;6.90;;
20271;SDS011;10295;49.812;9.866;2022-10-30T12:59:29;15.43;;;6.40;;
20271;SDS011;10295;49.812;9.866;2022-10-30T13:02:02;16.40;;;6.75;;
20271;SDS011;10295;49.812;9.866;2022-10-30T13:04:40;17.10;;;6.55;;
20271;SDS011;10295;49.812;9.866;2022-10-30T13:07:28;13.98;;;5.78;;
20271;SDS011;10295;49.812;9.866;2022-10-30T13:12:43;14.38;;;6.10;;
20271;SDS011;10295;49.812;9.866;2022-10-30T13:17:39;17.13;;;5.85;;
20271;SDS011;10295;49.812;9.866;2022-10-30T13:20:10;13.25;;;5.60;;
20271;SDS011;10295;49.812;9.866;2022-10-30T13:27:45;14.93;;;6.72;;
20271;SDS011;10295;49.812;9.866;2022-10-30T13:30:15;15.48;;;5.88;;
20271;SDS011;10295;49.812;9.866;2022-10-30T13:38:35;16.02;;;5.78;;
20271;SDS011;10295;49.812;9.866;2022-10-30T13:51:23;16.98;;;6.40;;
20271;SDS011;10295;49.812;9.866;2022-10-30T13:53:59;14.95;;;6.40;;
20271;SDS011;10295;49.812;9.866;2022-10-30T13:56:28;14.43;;;6.38;;
20271;SDS011;10295;49.812;9.866;2022-10-30T14:01:30;12.05;;;6.00;;
20271;SDS011;10295;49.812;9.866;2022-10-30T14:04:08;18.17;;;6.40;;
20271;SDS011;10295;49.812;9.866;2022-10-30T14:09:14;19.02;;;6.22;;
20271;SDS011;10295;49.812;9.866;2022-10-30T14:11:45;16.05;;;6.10;;
20271;SDS011;10295;49.812;9.866;2022-10-30T14:24:07;17.45;;;5.78;;
20271;SDS011;10295;49.812;9.866;2022-10-30T14:26:36;15.82;;;5.90;;
20271;SDS011;10295;49.812;9.866;2022-10-30T14:31:50;18.13;;;5.63;;
20271;SDS011;10295;49.812;9.866;2022-10-30T14:37:03;15.45;;;6.03;;
20271;SDS011;10295;49.812;9.866;2022-10-30T14:39:32;14.48;;;5.53;;
20271;SDS011;10295;49.812;9.866;2022-10-30T14:49:47;20.33;;;6.53;;
20271;SDS011;10295;49.812;9.866;2022-10-30T14:54:50;14.13;;;5.93;;
20271;SDS011;10295;49.812;9.866;2022-10-30T14:57:21;17.98;;;6.68;;
20271;SDS011;10295;49.812;9.866;2022-10-30T14:59:50;18.88;;;6.80;;
20271;SDS011;10295;49.812;9.866;2022-10-30T15:02:37;17.90;;;6.90;;
20271;SDS011;10295;49.812;9.866;2022-10-30T15:07:51;17.40;;;6.47;;
20271;SDS011;10295;49.812;9.866;2022-10-30T15:10:32;16.40;;;6.43;;
20271;SDS011;10295;49.812;9.866;2022-10-30T15:15:39;17.27;;;6.65;;
20271;SDS011;10295;49.812;9.866;2022-10-30T15:18:07;20.38;;;6.65;;
20271;SDS011;10295;49.812;9.866;2022-10-30T15:20:34;22.75;;;10.80;;
20271;SDS011;10295;49.812;9.866;2022-10-30T15:23:03;28.95;;;15.85;;
20271;SDS011;10295;49.812;9.866;2022-10-30T15:25:33;40.78;;;23.83;;
20271;SDS011;10295;49.812;9.866;2022-10-30T15:28:01;46.45;;;26.88;;
20271;SDS011;10295;49.812;9.866;2022-10-30T15:30:29;56.92;;;29.95;;
20271;SDS011;10295;49.812;9.866;2022-10-30T15:32:56;63.17;;;32.67;;
20271;SDS011;10295;49.812;9.866;2022-10-30T15:35:25;33.67;;;15.30;;
20271;SDS011;10295;49.812;9.866;2022-10-30T15:38:05;43.03;;;22.05;;
20271;SDS011;10295;49.812;9.866;2022-10-30T15:40:33;62.47;;;30.83;;
20271;SDS011;10295;49.812;9.866;2022-10-30T15:43:01;69.23;;;34.07;;
20271;SDS011;10295;49.812;9.866;2022-10-30T15:48:11;38.17;;;19.17;;
20271;SDS011;10295;49.812;9.866;2022-10-30T15:50:44;35.93;;;18.10;;
20271;SDS011;10295;49.812;9.866;2022-10-30T15:53:18;35.83;;;17.27;;
20271;SDS011;10295;49.812;9.866;2022-10-30T15:55:45;31.83;;;16.87;;
20271;SDS011;10295;49.812;9.866;2022-10-30T15:58:14;38.17;;;16.97;;
20271;SDS011;10295;49.812;9.866;2022-10-30T16:00:53;31.47;;;15.93;;
20271;SDS011;10295;49.812;9.866;2022-10-30T16:03:20;34.87;;;16.63;;
20271;SDS011;10295;49.812;9.866;2022-10-30T16:05:48;28.37;;;11.73;;
20271;SDS011;10295;49.812;9.866;2022-10-30T16:08:19;33.10;;;13.47;;
20271;SDS011;10295;49.812;9.866;2022-10-30T16:10:46;23.00;;;11.60;;
20271;SDS011;10295;49.812;9.866;2022-10-30T16:13:32;28.23;;;12.27;;
20271;SDS011;10295;49.812;9.866;2022-10-30T16:16:01;23.23;;;10.67;;
20271;SDS011;10295;49.812;9.866;2022-10-30T16:18:29;25.00;;;10.53;;
20271;SDS011;10295;49.812;9.866;2022-10-30T16:21:01;23.83;;;10.17;;
20271;SDS011;10295;49.812;9.866;2022-10-30T16:23:28;25.83;;;10.27;;
20271;SDS011;10295;49.812;9.866;2022-10-30T16:25:57;23.57;;;10.03;;
20271;SDS011;10295;49.812;9.866;2022-10-30T16:28:28;25.30;;;11.53;;
20271;SDS011;10295;49.812;9.866;2022-10-30T16:30:57;33.93;;;13.50;;
20271;SDS011;10295;49.812;9.866;2022-10-30T16:33:25;35.07;;;12.07;;
20271;SDS011;10295;49.812;9.866;2022-10-30T16:35:53;29.83;;;12.67;;
20271;SDS011;10295;49.812;9.866;2022-10-30T16:38:21;29.10;;;12.23;;
20271;SDS011;10295;49.812;9.866;2022-10-30T16:40:49;24.73;;;12.20;;
20271;SDS011;10295;49.812;9.866;2022-10-30T16:43:24;24.97;;;11.77;;
20271;SDS011;10295;49.812;9.866;2022-10-30T16:45:52;24.03;;;11.73;;
20271;SDS011;10295;49.812;9.866;2022-10-30T16:48:26;29.80;;;13.20;;
20271;SDS011;10295;49.812;9.866;2022-10-30T16:50:58;26.27;;;12.70;;
20271;SDS011;10295;49.812;9.866;2022-10-30T16:53:26;28.37;;;13.97;;
20271;SDS011;10295;49.812;9.866;2022-10-30T16:55:54;23.97;;;11.90;;
20271;SDS011;10295;49.812;9.866;2022-10-30T16:58:23;26.47;;;11.70;;
20271;SDS011;10295;49.812;9.866;2022-10-30T17:00:54;28.13;;;11.33;;
20271;SDS011;10295;49.812;9.866;2022-10-30T17:03:23;22.77;;;10.70;;
20271;SDS011;10295;49.812;9.866;2022-10-30T17:06:03;28.67;;;12.30;;
20271;SDS011;10295;49.812;9.866;2022-10-30T17:08:34;23.57;;;11.27;;
20271;SDS011;10295;49.812;9.866;2022-10-30T17:11:03;27.10;;;11.60;;